Time;durP1;ratioP1;P1;durP2;ratioP2;P2;SDS_P1;SDS_P2;PMS_P1;PMS_P2;Temp;Humidity;BMP_temperature;BMP_pressure;BME280_temperature;BME280_humidity;BME280_pressure;Samples;Min_cycle;Max_cycle;Signal;HPM_P1;HPM_P2
2021/05/22 00:01:18;;;;;;;4.63;2.63;;;10.30;99.90;;;;;;4155359;28;20494;-56
2021/05/22 00:03:19;;;;;;;7.70;2.97;;;10.30;99.90;;;;;;4154511;28;20053;-64
2021/05/22 00:05:20;;;;;;;3.97;2.93;;;10.30;99.90;;;;;;4155472;28;20045;-57
2021/05/22 00:07:21;;;;;;;7.07;2.87;;;10.30;99.90;;;;;;4155154;28;20025;-55
2021/05/22 00:09:22;;;;;;;3.80;2.90;;;10.30;99.90;;;;;;4155817;28;20084;-56
2021/05/22 00:11:23;;;;;;;5.30;3.53;;;10.30;99.90;;;;;;4155093;28;20494;-60
2021/05/22 00:13:25;;;;;;;5.43;2.60;;;10.20;99.90;;;;;;4153700;28;20076;-60
2021/05/22 00:15:26;;;;;;;4.23;2.20;;;10.20;99.90;;;;;;4155285;28;20559;-60
2021/05/22 00:17:27;;;;;;;6.27;2.73;;;10.20;99.90;;;;;;4155827;28;20091;-57
2021/05/22 00:19:28;;;;;;;7.17;2.47;;;10.20;99.90;;;;;;4154690;28;20038;-57
2021/05/22 00:21:29;;;;;;;4.17;2.70;;;10.20;99.90;;;;;;4155060;28;20041;-60
2021/05/22 00:23:31;;;;;;;4.40;2.60;;;10.20;99.90;;;;;;4154823;28;20132;-60
2021/05/22 00:25:32;;;;;;;2.60;2.27;;;10.20;99.90;;;;;;4155462;28;20096;-59
2021/05/22 00:27:33;;;;;;;5.50;2.50;;;10.20;99.90;;;;;;4155064;28;20076;-58
2021/05/22 00:29:34;;;;;;;5.27;2.00;;;10.10;99.90;;;;;;4155009;28;20075;-57
2021/05/22 00:31:36;;;;;;;2.27;1.93;;;10.20;99.90;;;;;;4154798;28;20041;-59
2021/05/22 00:33:37;;;;;;;3.63;2.70;;;10.10;99.90;;;;;;4154152;28;20103;-60
2021/05/22 00:35:38;;;;;;;5.03;2.47;;;10.10;99.90;;;;;;4155408;28;20033;-59
2021/05/22 00:37:40;;;;;;;6.73;2.43;;;10.10;99.90;;;;;;4155110;28;20029;-59
2021/05/22 00:39:41;;;;;;;2.87;2.40;;;10.00;99.90;;;;;;4154766;28;20091;-58
2021/05/22 00:41:42;;;;;;;5.90;2.63;;;10.00;99.90;;;;;;4153881;28;20049;-59
2021/05/22 00:43:43;;;;;;;2.67;2.17;;;10.00;99.90;;;;;;4155077;28;20482;-57
2021/05/22 00:45:45;;;;;;;6.73;3.20;;;10.00;99.90;;;;;;4153946;28;20164;-54
2021/05/22 00:47:51;;;;;;;5.77;3.00;;;10.00;99.90;;;;;;4155594;28;20029;-55
2021/05/22 00:49:52;;;;;;;3.33;1.80;;;9.90;99.90;;;;;;4154775;28;20428;-58
2021/05/22 00:51:54;;;;;;;3.40;2.57;;;9.90;99.90;;;;;;4155340;28;20088;-56
2021/05/22 00:53:55;;;;;;;6.70;2.50;;;9.90;99.90;;;;;;4155173;28;20029;-56
2021/05/22 00:56:01;;;;;;;4.00;2.80;;;9.80;99.90;;;;;;4155187;28;20037;-58
2021/05/22 00:58:04;;;;;;;4.37;3.37;;;9.90;99.90;;;;;;4155036;28;20041;-59
2021/05/22 01:00:07;;;;;;;6.37;2.23;;;9.80;99.90;;;;;;4155346;28;20107;-57
2021/05/22 01:02:10;;;;;;;6.00;3.10;;;9.80;99.90;;;;;;4154479;28;20485;-59
2021/05/22 01:04:19;;;;;;;5.37;2.07;;;9.70;99.90;;;;;;4155105;28;20076;-59
2021/05/22 01:06:22;;;;;;;5.83;2.20;;;9.70;99.90;;;;;;4155241;28;20402;-55
2021/05/22 01:08:24;;;;;;;4.73;1.90;;;9.70;99.90;;;;;;4154765;28;20033;-57
2021/05/22 01:10:25;;;;;;;4.57;2.67;;;9.60;99.90;;;;;;4154329;28;20461;-54
2021/05/22 01:12:33;;;;;;;6.17;2.63;;;9.60;99.90;;;;;;4154176;28;20091;-58
2021/05/22 01:14:49;;;;;;;2.53;2.30;;;9.60;99.90;;;;;;4154774;28;20049;-59
2021/05/22 01:16:53;;;;;;;3.10;2.10;;;9.60;99.90;;;;;;4158338;28;20026;-59
2021/05/22 01:18:56;;;;;;;2.50;1.97;;;9.50;99.90;;;;;;4157762;28;20087;-60
2021/05/22 01:21:00;;;;;;;2.10;1.90;;;9.60;99.90;;;;;;4157664;28;20035;-58
2021/05/22 01:23:21;;;;;;;4.80;2.07;;;9.50;99.90;;;;;;4143629;28;20486;-59
2021/05/22 01:25:56;;;;;;;4.37;2.43;;;9.50;99.90;;;;;;4141310;28;20088;-59
2021/05/22 01:27:59;;;;;;;8.60;2.80;;;9.40;99.90;;;;;;4140576;28;20046;-60
2021/05/22 01:30:02;;;;;;;5.47;2.60;;;9.30;99.90;;;;;;4141794;28;20112;-58
2021/05/22 01:32:04;;;;;;;9.13;3.37;;;9.20;99.90;;;;;;4141577;28;20053;-52
2021/05/22 01:34:07;;;;;;;4.40;3.03;;;9.20;99.90;;;;;;4141239;28;20034;-57
2021/05/22 01:36:09;;;;;;;4.27;2.80;;;9.10;99.90;;;;;;4141672;28;20041;-57
2021/05/22 01:38:10;;;;;;;3.87;2.60;;;9.10;99.90;;;;;;4139647;28;20849;-59
2021/05/22 01:40:12;;;;;;;8.47;3.23;;;9.10;99.90;;;;;;4141585;28;20018;-58
2021/05/22 01:42:13;;;;;;;5.63;3.00;;;9.10;99.90;;;;;;4153628;28;20053;-62
2021/05/22 01:44:16;;;;;;;5.23;2.90;;;9.10;99.90;;;;;;4156219;28;20075;-56
2021/05/22 01:46:17;;;;;;;12.13;4.13;;;9.10;99.90;;;;;;4157025;28;20631;-63
2021/05/22 01:48:27;;;;;;;6.23;2.63;;;9.10;99.90;;;;;;4157955;28;20072;-61
2021/05/22 01:50:31;;;;;;;6.10;2.85;;;9.10;99.90;;;;;;4157460;28;20583;-66
2021/05/22 01:52:35;;;;;;;6.30;3.03;;;9.00;99.90;;;;;;4157710;28;20025;-59
2021/05/22 01:54:37;;;;;;;4.93;2.80;;;8.90;99.90;;;;;;4157075;28;20037;-65
2021/05/22 01:56:39;;;;;;;5.83;2.83;;;8.80;99.90;;;;;;4157402;28;20091;-61
2021/05/22 01:58:41;;;;;;;3.77;2.60;;;8.80;99.90;;;;;;4157295;28;20029;-64
2021/05/22 02:00:44;;;;;;;6.97;3.13;;;8.70;99.90;;;;;;4157842;28;20026;-60
2021/05/22 02:03:10;;;;;;;5.47;3.40;;;8.60;99.90;;;;;;4156171;28;20510;-58
2021/05/22 02:05:12;;;;;;;5.97;3.30;;;8.60;99.90;;;;;;4157973;28;20111;-60
2021/05/22 02:07:18;;;;;;;11.23;5.20;;;8.60;99.90;;;;;;4157440;28;20033;-57
2021/05/22 02:09:20;;;;;;;6.47;4.77;;;8.60;99.90;;;;;;4157390;28;20029;-55
2021/05/22 02:11:22;;;;;;;7.33;5.60;;;8.60;99.90;;;;;;4156697;28;20041;-60
2021/05/22 02:13:23;;;;;;;8.53;6.43;;;8.60;99.90;;;;;;4155389;28;20051;-59
2021/05/22 02:15:27;;;;;;;9.73;5.17;;;8.50;99.90;;;;;;4157147;28;20059;-59
2021/05/22 02:17:28;;;;;;;6.97;5.90;;;8.50;99.90;;;;;;4156769;28;20076;-59
2021/05/22 02:19:30;;;;;;;8.60;5.50;;;8.50;99.90;;;;;;4157625;28;20075;-58
2021/05/22 02:21:32;;;;;;;9.43;5.40;;;8.50;99.90;;;;;;4156554;28;20539;-58
2021/05/22 02:23:41;;;;;;;11.47;5.10;;;8.50;99.90;;;;;;4157335;28;20490;-58
2021/05/22 02:25:42;;;;;;;8.07;4.03;;;8.40;99.90;;;;;;4156222;28;20099;-58
2021/05/22 02:27:44;;;;;;;7.17;3.43;;;8.30;99.90;;;;;;4157027;28;20017;-59
2021/05/22 02:29:46;;;;;;;5.03;3.73;;;8.30;99.90;;;;;;4156376;28;20049;-57
2021/05/22 02:31:50;;;;;;;7.87;3.63;;;8.20;99.90;;;;;;4156725;28;20037;-58
2021/05/22 02:33:53;;;;;;;7.93;4.00;;;8.20;99.90;;;;;;4156367;28;20457;-56
2021/05/22 02:35:55;;;;;;;6.17;4.77;;;8.20;99.90;;;;;;4156709;28;20119;-57
2021/05/22 02:37:57;;;;;;;7.80;4.13;;;8.20;99.90;;;;;;4155897;28;20037;-59
2021/05/22 02:40:02;;;;;;;8.63;4.57;;;8.30;99.90;;;;;;4156574;28;20068;-56
2021/05/22 02:42:07;;;;;;;7.53;3.90;;;8.30;99.90;;;;;;4155977;28;20042;-59
2021/05/22 02:44:10;;;;;;;7.87;3.60;;;8.30;99.90;;;;;;4156743;28;20076;-54
2021/05/22 02:46:13;;;;;;;9.50;4.23;;;8.30;99.90;;;;;;4156716;28;20033;-54
2021/05/22 02:48:20;;;;;;;6.90;3.60;;;8.30;99.90;;;;;;4156445;28;20099;-59
2021/05/22 02:50:23;;;;;;;5.30;3.70;;;8.30;99.90;;;;;;4156424;28;20079;-61
2021/05/22 02:52:26;;;;;;;6.07;4.07;;;8.30;99.90;;;;;;4156101;28;20126;-61
2021/05/22 02:54:31;;;;;;;19.20;4.73;;;8.30;99.90;;;;;;4156627;28;20560;-57
2021/05/22 02:56:34;;;;;;;6.63;4.63;;;8.20;99.90;;;;;;4156147;28;20555;-60
2021/05/22 02:58:38;;;;;;;6.93;4.27;;;8.20;99.90;;;;;;4156314;28;20037;-56
2021/05/22 03:00:40;;;;;;;12.33;4.60;;;8.20;99.90;;;;;;4156515;28;20440;-60
2021/05/22 03:02:42;;;;;;;8.27;4.80;;;8.10;99.90;;;;;;4155755;28;20045;-58
2021/05/22 03:04:45;;;;;;;9.60;4.70;;;8.10;99.90;;;;;;4155918;28;20041;-60
2021/05/22 03:06:46;;;;;;;7.97;4.77;;;8.10;99.90;;;;;;4156327;28;20033;-59
2021/05/22 03:08:50;;;;;;;6.10;4.60;;;8.00;99.90;;;;;;4156022;28;20075;-57
2021/05/22 03:10:53;;;;;;;22.60;5.00;;;8.00;99.90;;;;;;4156374;28;20030;-56
2021/05/22 03:12:54;;;;;;;11.30;4.90;;;8.00;99.90;;;;;;4155875;28;20029;-65
2021/05/22 03:14:55;;;;;;;11.53;5.47;;;7.90;99.90;;;;;;4156202;28;20107;-57
2021/05/22 03:16:57;;;;;;;15.37;5.20;;;8.00;99.90;;;;;;4155542;28;20428;-59
2021/05/22 03:18:58;;;;;;;10.17;5.90;;;8.00;99.90;;;;;;4156554;28;20037;-54
2021/05/22 03:20:59;;;;;;;12.40;5.00;;;7.90;99.90;;;;;;4155803;28;20041;-58
2021/05/22 03:23:01;;;;;;;9.40;5.40;;;7.90;99.90;;;;;;4156361;28;20100;-57
2021/05/22 03:25:04;;;;;;;14.03;5.43;;;8.00;99.90;;;;;;4155753;28;20045;-58
2021/05/22 03:27:05;;;;;;;15.37;6.30;;;8.00;99.90;;;;;;4155893;28;20045;-56
2021/05/22 03:29:06;;;;;;;11.83;6.77;;;8.00;99.90;;;;;;4156255;28;20567;-58
2021/05/22 03:31:08;;;;;;;13.60;6.93;;;8.00;99.90;;;;;;4155925;28;20080;-60
2021/05/22 03:33:09;;;;;;;11.03;6.53;;;8.10;99.90;;;;;;4156464;28;20088;-58
2021/05/22 03:35:10;;;;;;;12.40;6.63;;;8.10;99.90;;;;;;4155686;28;20079;-57
2021/05/22 03:37:11;;;;;;;13.37;6.10;;;8.10;99.90;;;;;;4155722;28;20076;-60
2021/05/22 03:39:12;;;;;;;13.03;6.57;;;8.10;99.90;;;;;;4155261;28;20087;-56
2021/05/22 03:41:13;;;;;;;10.27;6.40;;;8.10;99.90;;;;;;4155654;28;20064;-57
2021/05/22 03:43:15;;;;;;;12.13;6.83;;;8.10;99.90;;;;;;4155244;28;20030;-57
2021/05/22 03:45:16;;;;;;;14.33;6.33;;;8.10;99.90;;;;;;4155332;28;20099;-58
2021/05/22 03:47:17;;;;;;;15.00;6.30;;;8.20;99.90;;;;;;4155027;28;20038;-60
2021/05/22 03:49:18;;;;;;;13.43;6.40;;;8.30;99.90;;;;;;4155160;28;20095;-56
2021/05/22 03:51:19;;;;;;;7.10;5.80;;;8.30;99.90;;;;;;4155276;28;20370;-59
2021/05/22 03:53:21;;;;;;;25.70;6.90;;;8.40;99.90;;;;;;4155740;28;20033;-59
2021/05/22 03:55:22;;;;;;;13.83;6.03;;;8.50;99.90;;;;;;4155542;28;20393;-59
2021/05/22 03:57:23;;;;;;;11.43;6.10;;;8.70;99.90;;;;;;4155268;28;20037;-57
2021/05/22 03:59:26;;;;;;;11.53;5.40;;;8.90;99.90;;;;;;4154846;28;20045;-58
2021/05/22 04:01:27;;;;;;;11.90;5.60;;;9.10;99.90;;;;;;4154451;28;20046;-57
2021/05/22 04:03:29;;;;;;;13.20;5.47;;;9.30;99.90;;;;;;4155452;28;20041;-59
2021/05/22 04:05:30;;;;;;;9.87;5.70;;;9.50;99.90;;;;;;4154894;28;20478;-55
2021/05/22 04:07:31;;;;;;;10.10;5.70;;;9.60;99.90;;;;;;4154992;28;20114;-55
2021/05/22 04:09:32;;;;;;;12.70;6.33;;;9.70;99.90;;;;;;4155325;28;20478;-59
2021/05/22 04:11:33;;;;;;;10.17;5.07;;;9.70;99.90;;;;;;4155176;28;21383;-59
2021/05/22 04:13:34;;;;;;;10.90;5.43;;;9.70;99.90;;;;;;4154865;28;20037;-59
2021/05/22 04:15:35;;;;;;;12.07;5.57;;;9.70;99.90;;;;;;4155208;28;20298;-57
2021/05/22 04:17:37;;;;;;;9.40;5.20;;;9.70;99.90;;;;;;4154845;28;20041;-58
2021/05/22 04:19:38;;;;;;;11.43;5.47;;;9.60;99.90;;;;;;4155601;28;20029;-63
2021/05/22 04:21:39;;;;;;;20.73;5.53;;;9.50;99.90;;;;;;4154872;28;20029;-58
2021/05/22 04:23:40;;;;;;;10.80;6.03;;;9.50;99.90;;;;;;4155029;28;20095;-62
2021/05/22 04:25:41;;;;;;;12.20;5.27;;;9.40;99.90;;;;;;4154845;28;20498;-64
2021/05/22 04:27:43;;;;;;;13.47;5.60;;;9.40;99.90;;;;;;4149663;28;20068;-56
2021/05/22 04:29:44;;;;;;;16.67;5.90;;;9.50;99.90;;;;;;4138847;28;20084;-63
2021/05/22 04:31:45;;;;;;;10.30;5.97;;;9.50;99.90;;;;;;4139229;28;20030;-58
2021/05/22 04:33:46;;;;;;;10.20;4.93;;;9.70;99.90;;;;;;4138820;28;20038;-59
2021/05/22 04:35:47;;;;;;;8.07;5.20;;;10.00;99.90;;;;;;4138298;28;20092;-55
2021/05/22 04:37:48;;;;;;;9.47;5.30;;;10.30;99.90;;;;;;4139247;28;20042;-59
2021/05/22 04:39:50;;;;;;;10.87;5.27;;;10.80;99.90;;;;;;4138550;28;20033;-58
2021/05/22 04:41:51;;;;;;;26.73;5.90;;;11.20;99.90;;;;;;4138589;28;20050;-55
2021/05/22 04:43:52;;;;;;;8.80;4.87;;;11.70;99.90;;;;;;4137751;28;20045;-59
2021/05/22 04:45:55;;;;;;;10.47;5.10;;;12.20;99.90;;;;;;4138788;28;20085;-59
2021/05/22 04:47:56;;;;;;;14.33;4.47;;;12.80;99.90;;;;;;4147364;28;20851;-61
2021/05/22 04:49:57;;;;;;;5.80;4.00;;;13.00;99.90;;;;;;4154313;28;20092;-64
2021/05/22 04:51:59;;;;;;;6.73;4.63;;;13.00;99.90;;;;;;4154485;28;20436;-63
2021/05/22 04:54:06;;;;;;;8.73;3.87;;;12.70;99.90;;;;;;4155001;28;20099;-65
2021/05/22 04:56:07;;;;;;;8.93;4.60;;;12.60;99.90;;;;;;4154097;28;20080;-60
2021/05/22 04:58:08;;;;;;;8.00;4.50;;;12.40;99.90;;;;;;4154035;28;20042;-57
2021/05/22 05:00:10;;;;;;;15.40;4.57;;;12.30;99.90;;;;;;4154692;28;20060;-65
2021/05/22 05:02:11;;;;;;;7.70;3.87;;;12.20;99.90;;;;;;4154863;28;20515;-58
2021/05/22 05:04:12;;;;;;;10.20;4.00;;;12.10;99.90;;;;;;4154543;28;20037;-58
2021/05/22 05:06:14;;;;;;;7.27;4.20;;;11.90;99.90;;;;;;4154205;28;20456;-55
2021/05/22 05:08:20;;;;;;;6.97;3.83;;;11.80;99.90;;;;;;4154814;28;20703;-60
2021/05/22 05:10:21;;;;;;;6.37;4.00;;;12.00;99.90;;;;;;4154233;28;20626;-58
2021/05/22 05:12:23;;;;;;;9.27;4.10;;;12.20;99.90;;;;;;4154207;28;20152;-56
2021/05/22 05:14:24;;;;;;;4.60;3.60;;;12.30;99.90;;;;;;4154393;28;20080;-58
2021/05/22 05:16:25;;;;;;;5.77;3.60;;;12.40;99.90;;;;;;4153960;28;20064;-62
2021/05/22 05:18:26;;;;;;;8.30;3.80;;;12.30;99.90;;;;;;4153550;28;20075;-61
2021/05/22 05:20:27;;;;;;;4.87;3.90;;;12.20;99.90;;;;;;4153885;28;20091;-64
2021/05/22 05:22:28;;;;;;;8.63;4.40;;;12.20;99.90;;;;;;4153970;28;20560;-60
2021/05/22 05:24:29;;;;;;;4.93;3.90;;;12.10;99.90;;;;;;4154952;28;20029;-62
2021/05/22 05:26:30;;;;;;;9.73;4.00;;;12.30;99.90;;;;;;4154410;28;20064;-61
2021/05/22 05:28:32;;;;;;;7.70;3.63;;;12.50;99.90;;;;;;4154024;28;20033;-64
2021/05/22 05:30:33;;;;;;;7.97;4.43;;;12.60;99.90;;;;;;4153834;28;20022;-61
2021/05/22 05:32:35;;;;;;;9.63;4.93;;;12.50;99.90;;;;;;4154773;28;20018;-62
2021/05/22 05:34:37;;;;;;;4.83;4.03;;;12.40;99.90;;;;;;4154303;28;20092;-59
2021/05/22 05:36:39;;;;;;;11.00;4.87;;;12.30;99.90;;;;;;4153935;28;20129;-57
2021/05/22 05:38:40;;;;;;;6.17;4.57;;;12.30;99.90;;;;;;4154242;28;20059;-59
2021/05/22 05:40:41;;;;;;;7.10;4.53;;;12.20;99.90;;;;;;4153665;28;20026;-58
2021/05/22 05:42:42;;;;;;;7.30;4.60;;;12.00;99.90;;;;;;4153812;28;20049;-56
2021/05/22 05:44:43;;;;;;;6.37;4.40;;;12.10;99.90;;;;;;4153488;28;20037;-58
2021/05/22 05:46:44;;;;;;;4.97;3.97;;;12.20;99.90;;;;;;4154380;28;20029;-57
2021/05/22 05:48:45;;;;;;;5.97;4.17;;;12.30;99.90;;;;;;4152845;28;20112;-61
2021/05/22 05:50:47;;;;;;;5.57;4.20;;;12.40;99.90;;;;;;4152946;28;20655;-60
2021/05/22 05:52:48;;;;;;;8.33;4.27;;;12.40;99.90;;;;;;4153055;28;20033;-57
2021/05/22 05:54:49;;;;;;;5.03;4.17;;;12.40;99.90;;;;;;4153582;28;20619;-59
2021/05/22 05:56:50;;;;;;;7.13;4.13;;;12.60;99.90;;;;;;4152368;28;20095;-60
2021/05/22 05:58:51;;;;;;;7.03;4.13;;;12.70;99.90;;;;;;4154059;28;20091;-51
2021/05/22 06:00:52;;;;;;;7.13;4.07;;;12.60;99.90;;;;;;4154435;28;20060;-59
2021/05/22 06:02:54;;;;;;;8.73;4.20;;;12.60;99.90;;;;;;4156631;28;20099;-62
2021/05/22 06:04:55;;;;;;;7.93;4.30;;;12.70;99.90;;;;;;4156859;28;20037;-49
2021/05/22 06:06:56;;;;;;;7.33;4.73;;;12.80;99.90;;;;;;4156498;28;20029;-57
2021/05/22 06:08:58;;;;;;;6.70;4.50;;;12.80;99.90;;;;;;4156590;28;20022;-63
2021/05/22 06:11:00;;;;;;;8.30;4.60;;;12.80;99.90;;;;;;4156319;28;20025;-60
2021/05/22 06:13:01;;;;;;;6.60;4.40;;;12.80;99.90;;;;;;4155898;28;20828;-57
2021/05/22 06:17:11;;;;;;;13.03;4.70;;;13.00;99.90;;;;;;4156573;28;20096;-63
2021/05/22 06:19:12;;;;;;;10.93;4.80;;;13.00;99.90;;;;;;4156092;28;20485;-54
2021/05/22 06:21:15;;;;;;;10.60;4.17;;;13.10;99.90;;;;;;4156175;28;20075;-61
2021/05/22 06:23:16;;;;;;;10.37;4.77;;;13.10;99.90;;;;;;4155128;28;20033;-60
2021/05/22 06:25:17;;;;;;;5.07;3.97;;;13.10;99.90;;;;;;4154119;28;20045;-59
2021/05/22 06:27:19;;;;;;;6.70;3.90;;;13.10;99.90;;;;;;4155250;28;20100;-63
2021/05/22 06:29:21;;;;;;;6.07;4.00;;;13.20;99.90;;;;;;4155877;28;20029;-60
2021/05/22 06:31:23;;;;;;;7.63;3.60;;;13.20;99.90;;;;;;4156055;28;20103;-58
2021/05/22 06:33:24;;;;;;;5.57;3.87;;;13.20;99.90;;;;;;4155719;28;20042;-59
2021/05/22 06:35:25;;;;;;;5.30;4.60;;;13.20;99.90;;;;;;4153655;28;20041;-58
2021/05/22 06:37:27;;;;;;;8.40;4.03;;;13.20;99.90;;;;;;4150384;28;20050;-60
2021/05/22 06:39:28;;;;;;;5.03;2.60;;;13.30;99.90;;;;;;4152487;28;20118;-59
2021/05/22 06:41:29;;;;;;;6.67;3.03;;;13.20;99.90;;;;;;4150499;28;20520;-58
2021/05/22 06:43:30;;;;;;;3.80;2.57;;;13.20;99.90;;;;;;4152395;28;20852;-60
2021/05/22 06:48:02;;;;;;;3.13;2.63;;;13.30;99.90;;;;;;4142719;28;20045;-63
2021/05/22 06:50:03;;;;;;;4.43;3.03;;;13.30;99.90;;;;;;4150299;28;20033;-62
2021/05/22 06:52:05;;;;;;;11.80;3.30;;;13.30;99.90;;;;;;4150476;28;20029;-62
2021/05/22 06:54:06;;;;;;;7.23;2.50;;;13.50;99.90;;;;;;4151383;28;20041;-62
2021/05/22 06:56:07;;;;;;;7.30;3.10;;;13.50;99.90;;;;;;4150757;28;20037;-64
2021/05/22 06:58:10;;;;;;;7.17;2.80;;;13.40;99.90;;;;;;4149549;28;20037;-63
2021/05/22 07:00:11;;;;;;;8.40;2.60;;;13.50;99.90;;;;;;4150447;28;20452;-60
2021/05/22 07:02:13;;;;;;;9.23;2.50;;;13.60;99.90;;;;;;4155697;28;20057;-63
2021/05/22 07:04:14;;;;;;;7.23;2.33;;;13.70;99.90;;;;;;4156233;28;20059;-62
2021/05/22 07:06:15;;;;;;;7.40;2.80;;;13.90;99.90;;;;;;4150615;28;20103;-65
2021/05/22 07:08:17;;;;;;;6.10;2.73;;;14.10;99.90;;;;;;4153738;28;20711;-63
2021/05/22 07:10:18;;;;;;;6.90;2.73;;;14.40;99.90;;;;;;4154720;28;20049;-62
2021/05/22 07:12:19;;;;;;;4.10;2.10;;;14.60;99.90;;;;;;4154432;28;20404;-61
2021/05/22 07:14:20;;;;;;;4.73;2.30;;;14.70;99.90;;;;;;4154960;28;20513;-63
2021/05/22 07:16:22;;;;;;;4.63;2.90;;;14.70;99.90;;;;;;4153875;28;20045;-60
2021/05/22 07:18:23;;;;;;;10.23;2.57;;;14.70;99.90;;;;;;4156305;28;20422;-62
2021/05/22 07:20:24;;;;;;;4.37;2.50;;;14.80;99.90;;;;;;4151046;28;20037;-62
2021/05/22 07:22:25;;;;;;;5.23;2.93;;;14.90;99.90;;;;;;4151447;28;20049;-61
2021/05/22 07:24:27;;;;;;;3.23;2.30;;;15.00;99.90;;;;;;4151717;28;20041;-62
2021/05/22 07:26:28;;;;;;;9.63;3.57;;;15.00;99.90;;;;;;4150941;28;20103;-61
2021/05/22 07:28:32;;;;;;;8.23;2.97;;;15.20;99.90;;;;;;4149841;28;20029;-61
2021/05/22 07:30:33;;;;;;;4.43;2.70;;;15.30;99.90;;;;;;4153381;28;20052;-62
2021/05/22 07:32:36;;;;;;;6.50;2.20;;;15.40;99.90;;;;;;4155087;28;20029;-65
2021/05/22 07:34:37;;;;;;;3.43;2.57;;;15.60;99.90;;;;;;4155193;28;20536;-62
2021/05/22 07:36:39;;;;;;;5.30;2.87;;;15.70;99.90;;;;;;4162896;28;21294;-61
2021/05/22 07:38:41;;;;;;;6.60;2.83;;;15.90;99.90;;;;;;4172138;28;20037;-62
2021/05/22 07:40:42;;;;;;;5.03;2.57;;;16.00;99.90;;;;;;4151408;28;20021;-63
2021/05/22 07:42:48;;;;;;;6.97;2.73;;;16.10;99.90;;;;;;4155196;28;20045;-62
2021/05/22 07:44:49;;;;;;;3.73;2.60;;;16.20;99.90;;;;;;4154595;28;20167;-62
2021/05/22 07:46:50;;;;;;;7.10;2.73;;;16.30;99.90;;;;;;4155216;28;20083;-61
2021/05/22 07:48:52;;;;;;;9.88;2.58;;;16.30;99.90;;;;;;4154684;28;20030;-63
2021/05/22 07:50:53;;;;;;;4.97;2.20;;;16.30;99.90;;;;;;4154746;28;20033;-62
2021/05/22 07:52:54;;;;;;;2.50;2.00;;;16.40;99.90;;;;;;4155284;28;20033;-62
2021/05/22 07:54:55;;;;;;;5.30;2.30;;;16.50;99.90;;;;;;4155125;28;20041;-63
2021/05/22 07:56:56;;;;;;;2.47;2.00;;;16.60;99.90;;;;;;4154851;28;20072;-63
2021/05/22 07:58:58;;;;;;;4.70;1.83;;;16.60;99.90;;;;;;4154653;28;20913;-63
2021/05/22 08:00:59;;;;;;;6.88;2.55;;;16.80;99.90;;;;;;4154226;28;20053;-61
2021/05/22 08:03:00;;;;;;;4.20;2.40;;;16.90;99.90;;;;;;4155153;28;20456;-63
2021/05/22 08:05:03;;;;;;;12.57;1.90;;;17.00;99.90;;;;;;4155038;28;20493;-58
2021/05/22 08:07:04;;;;;;;4.68;2.00;;;17.00;99.90;;;;;;4153985;28;20072;-60
2021/05/22 08:09:07;;;;;;;5.40;1.90;;;17.20;99.90;;;;;;4154215;28;20516;-59
2021/05/22 08:11:08;;;;;;;6.88;2.42;;;17.30;99.90;;;;;;4154905;28;20088;-59
2021/05/22 08:13:10;;;;;;;5.95;2.38;;;17.50;99.90;;;;;;4154771;28;20449;-62
2021/05/22 08:15:11;;;;;;;3.15;1.80;;;17.60;99.90;;;;;;4152745;28;20037;-60
2021/05/22 08:17:12;;;;;;;3.63;1.80;;;17.70;99.90;;;;;;4154288;28;20041;-62
2021/05/22 08:19:14;;;;;;;7.55;1.67;;;17.90;99.90;;;;;;4155145;28;20045;-61
2021/05/22 08:21:17;;;;;;;8.13;2.25;;;18.00;99.90;;;;;;4154823;28;20080;-64
2021/05/22 08:23:19;;;;;;;6.13;1.23;;;18.10;99.90;;;;;;4152924;28;20057;-60
2021/05/22 08:25:20;;;;;;;2.67;1.15;;;18.20;99.90;;;;;;4154391;28;20485;-59
2021/05/22 08:27:22;;;;;;;3.55;0.68;;;18.30;99.60;;;;;;4154503;28;20041;-59
2021/05/22 08:29:23;;;;;;;2.22;1.20;;;18.40;98.20;;;;;;4154158;28;20041;-62
2021/05/22 08:31:25;;;;;;;2.88;1.30;;;18.40;97.60;;;;;;4154462;28;20037;-60
2021/05/22 08:33:26;;;;;;;1.42;1.00;;;18.40;97.00;;;;;;4154126;28;20046;-61
2021/05/22 08:35:31;;;;;;;7.63;1.08;;;18.30;96.30;;;;;;4153152;28;20128;-60
2021/05/22 08:37:32;;;;;;;1.33;0.82;;;18.40;96.30;;;;;;4153590;28;20045;-58
2021/05/22 08:39:34;;;;;;;207.38;94.43;;;18.50;95.90;;;;;;4154087;28;20025;-56
2021/05/22 08:41:37;;;;;;;7.13;2.63;;;18.70;95.40;;;;;;4154412;28;20429;-59
2021/05/22 08:43:38;;;;;;;5.20;1.00;;;19.00;95.40;;;;;;4154316;28;20053;-59
2021/05/22 08:45:39;;;;;;;3.45;0.80;;;19.10;94.60;;;;;;4153229;28;20461;-58
2021/05/22 08:47:41;;;;;;;5.13;1.15;;;19.20;94.00;;;;;;4154089;28;20092;-65
2021/05/22 08:49:43;;;;;;;2.83;1.33;;;19.20;93.00;;;;;;4153979;28;20488;-63
2021/05/22 08:51:44;;;;;;;2.40;1.42;;;19.30;93.20;;;;;;4153042;28;20064;-61
2021/05/22 08:53:46;;;;;;;4.45;0.77;;;19.10;92.90;;;;;;4152965;28;20076;-62
2021/05/22 08:55:47;;;;;;;3.28;1.30;;;18.90;92.90;;;;;;4153661;28;20037;-62
2021/05/22 08:57:48;;;;;;;2.28;1.00;;;18.90;92.80;;;;;;4154241;28;20444;-61
2021/05/22 08:59:49;;;;;;;4.97;1.55;;;18.90;92.80;;;;;;4154160;28;20033;-59
2021/05/22 09:01:51;;;;;;;3.55;1.95;;;19.00;93.00;;;;;;4154215;28;20038;-63
2021/05/22 09:03:56;;;;;;;5.68;1.70;;;18.90;94.90;;;;;;4153339;28;20431;-58
2021/05/22 09:05:57;;;;;;;7.68;2.30;;;18.80;95.40;;;;;;4154279;28;20025;-64
2021/05/22 09:08:04;;;;;;;1.75;1.60;;;18.70;96.10;;;;;;4154053;28;20034;-64
2021/05/22 09:10:28;;;;;;;3.58;1.85;;;18.70;96.60;;;;;;4154897;28;20037;-64
2021/05/22 09:12:33;;;;;;;4.75;2.00;;;18.50;96.00;;;;;;4153853;28;20029;-62
2021/05/22 09:14:51;;;;;;;3.70;2.10;;;18.50;96.60;;;;;;4153713;28;20025;-62
2021/05/22 09:16:52;;;;;;;4.72;1.67;;;18.60;97.10;;;;;;4153901;28;20071;-61
2021/05/22 09:19:01;;;;;;;3.72;1.80;;;18.70;97.30;;;;;;4153959;28;20359;-63
2021/05/22 09:21:08;;;;;;;3.30;1.30;;;18.90;96.00;;;;;;4154156;28;20037;-62
2021/05/22 09:23:17;;;;;;;2.63;0.93;;;19.10;95.50;;;;;;4153548;28;20099;-64
2021/05/22 09:25:18;;;;;;;1.48;0.70;;;19.40;94.10;;;;;;4153957;28;20429;-61
2021/05/22 09:27:20;;;;;;;3.33;0.73;;;19.80;92.80;;;;;;4154167;28;20371;-59
2021/05/22 09:29:25;;;;;;;2.63;0.80;;;20.10;91.80;;;;;;4154218;28;20083;-62
2021/05/22 09:31:27;;;;;;;2.25;0.90;;;20.20;91.00;;;;;;4154655;28;20083;-63
2021/05/22 09:33:31;;;;;;;4.20;0.77;;;20.40;90.00;;;;;;4154484;28;20029;-62
2021/05/22 09:35:32;;;;;;;1.02;0.63;;;20.50;88.40;;;;;;4154119;28;20037;-63
2021/05/22 09:37:47;;;;;;;1.63;0.57;;;20.60;86.80;;;;;;4157056;28;20511;-62
2021/05/22 09:39:49;;;;;;;2.47;0.88;;;20.60;82.10;;;;;;4157124;28;20045;-62
2021/05/22 09:41:50;;;;;;;2.17;0.85;;;20.90;83.00;;;;;;4157167;28;20110;-62
2021/05/22 09:44:12;;;;;;;1.40;0.85;;;20.80;79.20;;;;;;4157388;28;21096;-62
2021/05/22 09:46:13;;;;;;;2.30;0.90;;;20.80;75.40;;;;;;4156502;28;20091;-63
2021/05/22 09:48:14;;;;;;;4.32;0.95;;;20.80;79.00;;;;;;4157249;28;20030;-65
2021/05/22 09:50:49;;;;;;;1.75;0.90;;;20.90;79.60;;;;;;4156380;28;20111;-62
2021/05/22 09:52:52;;;;;;;3.50;0.80;;;20.90;80.30;;;;;;4145477;28;20095;-62
2021/05/22 09:55:01;;;;;;;2.60;0.88;;;20.90;81.30;;;;;;4156830;28;20084;-63
2021/05/22 09:57:02;;;;;;;1.58;0.80;;;21.10;82.20;;;;;;4156164;28;20102;-62
2021/05/22 09:59:04;;;;;;;1.35;0.80;;;21.30;81.40;;;;;;4156372;28;20941;-62
2021/05/22 10:01:05;;;;;;;3.53;1.27;;;21.50;79.00;;;;;;4156670;28;20045;-62
2021/05/22 10:03:06;;;;;;;2.67;0.65;;;21.50;77.10;;;;;;4156842;28;20065;-62
2021/05/22 10:05:15;;;;;;;3.75;0.98;;;21.40;75.30;;;;;;4156324;28;20091;-60
2021/05/22 10:07:33;;;;;;;1.52;1.00;;;21.40;76.10;;;;;;4157176;28;20041;-62
2021/05/22 10:09:39;;;;;;;3.40;0.98;;;21.50;72.70;;;;;;4156732;28;20444;-63
2021/05/22 10:11:59;;;;;;;1.77;0.90;;;21.80;74.00;;;;;;4156571;28;20126;-66
2021/05/22 10:14:01;;;;;;;6.03;0.77;;;21.90;70.50;;;;;;4156509;28;20072;-62
2021/05/22 10:16:04;;;;;;;2.72;0.90;;;21.80;71.10;;;;;;4156314;28;20103;-62
2021/05/22 10:18:05;;;;;;;1.75;0.52;;;21.80;69.90;;;;;;4156286;28;20041;-62
2021/05/22 10:20:07;;;;;;;4.13;0.95;;;21.70;69.70;;;;;;4156270;28;20084;-63
2021/05/22 10:22:09;;;;;;;3.00;0.70;;;21.50;67.90;;;;;;4154721;28;20501;-62
2021/05/22 10:24:10;;;;;;;1.63;0.90;;;21.60;69.30;;;;;;4156629;28;20037;-61
2021/05/22 10:26:13;;;;;;;2.50;0.60;;;21.70;69.20;;;;;;4156210;28;20034;-61
2021/05/22 10:28:15;;;;;;;3.10;0.52;;;21.90;68.40;;;;;;4156310;28;20033;-62
2021/05/22 10:30:18;;;;;;;4.25;1.00;;;22.10;68.50;;;;;;4156364;28;20029;-63
2021/05/22 10:32:22;;;;;;;5.03;1.45;;;22.20;68.70;;;;;;4156190;28;20383;-62
2021/05/22 10:34:27;;;;;;;4.35;0.80;;;22.40;68.90;;;;;;4154976;28;20053;-62
2021/05/22 10:36:51;;;;;;;10.75;6.15;;;22.50;68.40;;;;;;4156585;28;20033;-62
2021/05/22 10:38:52;;;;;;;1.83;0.70;;;22.60;66.70;;;;;;4155742;28;20049;-62
2021/05/22 10:40:53;;;;;;;1.95;1.20;;;22.80;66.70;;;;;;4156100;28;20482;-61
2021/05/22 10:42:56;;;;;;;11.85;10.07;;;22.90;66.00;;;;;;4155727;28;20436;-63
2021/05/22 10:44:58;;;;;;;5.50;3.13;;;23.10;65.00;;;;;;4156427;28;20504;-61